createdAt,value
2023-01-02T00:00:30.488Z,100072.34
2023-01-02T00:05:33.372Z,100069.53
2023-01-02T00:10:36.150Z,100051.19
2023-01-02T00:15:40.317Z,100048.78
2023-01-02T00:20:43.146Z,100054.88
2023-01-02T00:25:45.943Z,100039.16
2023-01-02T00:30:50.716Z,100015.56
2023-01-02T00:35:53.559Z,100003.25
2023-01-02T00:40:56.518Z,100008.56
2023-01-02T00:46:04.835Z,100001.41
2023-01-02T00:51:10.536Z,100000.25
2023-01-02T00:56:13.811Z,100011.72
2023-01-02T01:01:18.144Z,100009.06
2023-01-02T01:06:21.431Z,100005.09
2023-01-02T01:11:24.212Z,100001.28
2023-01-02T01:16:28.441Z,99992.63
2023-01-02T01:21:31.353Z,99990.50
2023-01-02T01:26:34.693Z,100005.66
2023-01-02T01:31:38.882Z,100004.13
2023-01-02T01:36:41.728Z,100001.28
2023-01-02T01:41:44.543Z,99995.06
2023-01-02T01:46:48.915Z,99981.31
2023-01-02T01:51:53.833Z,99986.13
2023-01-02T01:57:00.773Z,99978.59
2023-01-02T02:02:05.100Z,99967.66
2023-01-02T02:07:08.471Z,99994.19
2023-01-02T02:12:12.920Z,99976.72
2023-01-02T02:17:24.450Z,99976.16
2023-01-02T02:22:50.560Z,99976.88
2023-01-02T02:28:25.625Z,99980.69
2023-01-02T02:33:41.586Z,99972.13
2023-01-02T02:38:58.497Z,99968.81
2023-01-02T02:44:15.887Z,99983.56
2023-01-02T02:49:33.607Z,99976.91
2023-01-02T02:54:41.139Z,99975.34
2023-01-02T02:59:44.454Z,99970.97
2023-01-02T03:04:52.108Z,99972.22
2023-01-02T03:10:07.706Z,99978.91
2023-01-02T03:15:17.697Z,99975.66
2023-01-02T03:20:26.061Z,99975.22
2023-01-02T03:25:29.855Z,99972.97
2023-01-02T03:30:38.251Z,99977.22
2023-01-02T03:35:46.534Z,99958.78
2023-01-02T03:40:53.847Z,99955.38
2023-01-02T03:46:05.578Z,99959.94
2023-01-02T03:51:10.395Z,99966.16
2023-01-02T03:56:21.722Z,99969.00
2023-01-02T04:01:35.656Z,99963.59
2023-01-02T04:06:44.785Z,99960.91
2023-01-02T04:11:53.435Z,99933.28
2023-01-02T04:16:59.351Z,99938.81
2023-01-02T04:22:08.384Z,99944.50
2023-01-02T04:27:16.101Z,99956.38
2023-01-02T04:32:23.734Z,99971.09
2023-01-02T04:37:30.403Z,99978.47
2023-01-02T04:42:33.199Z,99991.22
2023-01-02T04:47:36.011Z,99989.91
2023-01-02T04:52:40.156Z,99990.75
2023-01-02T04:57:42.984Z,99972.75
2023-01-02T05:02:45.861Z,99981.50
2023-01-02T05:07:50.191Z,99974.66
2023-01-02T05:12:52.982Z,100002.66
2023-01-02T05:17:58.037Z,100006.91
2023-01-02T05:23:19.578Z,99995.13
2023-01-02T05:28:22.392Z,99985.94
2023-01-02T05:33:25.246Z,99980.50
2023-01-02T05:38:31.823Z,99977.44
2023-01-02T05:43:36.341Z,99986.19
2023-01-02T05:48:39.639Z,99987.34
2023-01-02T05:53:44.007Z,99999.72
2023-01-02T05:58:48.819Z,99992.97
2023-01-02T06:03:53.472Z,100003.06
2023-01-02T06:08:58.810Z,100002.53
2023-01-02T06:14:01.941Z,99993.91
2023-01-02T06:19:05.212Z,100019.25
2023-01-02T06:24:09.567Z,99999.56
2023-01-02T06:29:12.962Z,99994.63
2023-01-02T06:34:17.834Z,100005.38
2023-01-02T06:39:22.181Z,99999.28
2023-01-02T06:44:24.955Z,100017.84
2023-01-02T06:49:27.686Z,100015.03
2023-01-02T06:54:31.597Z,100019.69
2023-01-02T06:59:34.335Z,100029.88
2023-01-02T07:04:37.086Z,100040.22
2023-01-02T07:09:41.232Z,100021.94
2023-01-02T07:14:44.399Z,100029.75
2023-01-02T07:19:53.248Z,100028.91
2023-01-02T07:24:58.621Z,100026.06
2023-01-02T07:30:01.484Z,100035.28
2023-01-02T07:35:04.406Z,100048.59
2023-01-02T07:40:10.034Z,100048.19
2023-01-02T07:45:12.766Z,100057.94
2023-01-02T07:50:15.422Z,100058.06
2023-01-02T07:55:19.608Z,100056.13
2023-01-02T08:00:22.533Z,100064.03
2023-01-02T08:05:25.269Z,100061.50
2023-01-02T08:10:29.827Z,100077.91
2023-01-02T08:15:32.981Z,100077.06
2023-01-02T08:20:35.869Z,100089.91
2023-01-02T08:25:39.961Z,100085.97
2023-01-02T08:30:42.784Z,100102.19
2023-01-02T08:35:45.500Z,100105.75
2023-01-02T08:40:49.447Z,100106.47
2023-01-02T08:45:52.275Z,100103.53
2023-01-02T08:50:55.138Z,100113.88
2023-01-02T08:56:21.170Z,100136.56
2023-01-02T09:01:25.465Z,100120.13
2023-01-02T09:06:31.439Z,100141.31
2023-01-02T09:11:40.075Z,100138.31
2023-01-02T09:16:42.862Z,100149.38
2023-01-02T09:21:45.755Z,100173.75
2023-01-02T09:26:49.997Z,100176.78
2023-01-02T09:31:52.928Z,100179.41
2023-01-02T09:36:55.734Z,100201.59
2023-01-02T09:42:04.420Z,100200.88
2023-01-02T09:47:13.305Z,100209.66
2023-01-02T09:52:21.601Z,100214.72
2023-01-02T09:57:37.053Z,100220.28
2023-01-02T10:03:08.247Z,100218.91
2023-01-02T10:08:31.498Z,100231.69
2023-01-02T10:14:17.421Z,100225.91
2023-01-02T10:19:10.858Z,100226.31
2023-01-02T10:24:18.362Z,100256.66
2023-01-02T10:29:30.203Z,100243.75
2023-01-02T10:34:40.581Z,100257.91
2023-01-02T10:39:44.784Z,100252.78
2023-01-02T10:44:49.120Z,100257.38
2023-01-02T10:49:53.959Z,100260.13
2023-01-02T10:55:00.321Z,100261.66
2023-01-02T11:00:08.308Z,100302.31
2023-01-02T11:05:20.563Z,100308.16
2023-01-02T11:10:26.383Z,100322.63
2023-01-02T11:15:34.506Z,100309.19
2023-01-02T11:20:38.915Z,100343.84
2023-01-02T11:25:43.690Z,100340.72
2023-01-02T11:30:50.250Z,100353.31
2023-01-02T11:35:55.637Z,100353.88
2023-01-02T11:41:01.236Z,100363.53
2023-01-02T11:46:10.176Z,100358.16
2023-01-02T11:51:17.908Z,100374.59
2023-01-02T11:56:25.828Z,100393.16
2023-01-02T12:01:38.102Z,100387.50
2023-01-02T12:06:55.277Z,100392.56
2023-01-02T12:12:16.482Z,100407.53
2023-01-02T12:17:25.892Z,100425.81
2023-01-02T12:22:48.951Z,100420.13
2023-01-02T12:27:59.046Z,100437.00
2023-01-02T12:33:32.159Z,100431.69
2023-01-02T12:38:57.885Z,100433.56
2023-01-02T12:44:14.156Z,100434.97
2023-01-02T12:49:36.332Z,100439.47
2023-01-02T12:54:56.857Z,100441.53
2023-01-02T13:00:22.722Z,100455.66
2023-01-02T13:05:31.000Z,100454.91
2023-01-02T13:10:34.743Z,100469.75
2023-01-02T13:15:41.504Z,100479.50
2023-01-02T13:20:54.257Z,100475.81
2023-01-02T13:25:59.254Z,100475.97
2023-01-02T13:31:35.818Z,100493.78
2023-01-02T13:36:39.351Z,100512.16
2023-01-02T13:42:08.958Z,100508.41
2023-01-02T13:47:25.553Z,100504.19
2023-01-02T13:52:31.664Z,100507.66
2023-01-02T13:57:34.611Z,100525.25
2023-01-02T14:02:37.524Z,100533.72
2023-01-02T14:07:49.267Z,100528.88
2023-01-02T14:12:55.971Z,100543.31
2023-01-02T14:18:04.963Z,100557.66
2023-01-02T14:23:11.402Z,100561.34
2023-01-02T14:28:22.620Z,100549.13
2023-01-02T14:33:32.273Z,100577.50
2023-01-02T14:38:41.359Z,100585.50
2023-01-02T14:43:45.836Z,100579.22
2023-01-02T14:48:55.947Z,100561.44
2023-01-02T14:54:03.003Z,100568.91
2023-01-02T14:59:08.258Z,100579.53
2023-01-02T15:04:20.301Z,100575.25
2023-01-02T15:09:30.659Z,100576.41
2023-01-02T15:14:33.442Z,100601.25
2023-01-02T15:19:42.224Z,100624.13
2023-01-02T15:24:51.189Z,100624.00
2023-01-02T15:29:56.935Z,100620.44
2023-01-02T15:35:13.752Z,100643.72
2023-01-02T15:40:21.330Z,100632.97
2023-01-02T15:45:24.257Z,100640.28
2023-01-02T15:50:29.305Z,100666.19
2023-01-02T15:55:37.374Z,100676.94
2023-01-02T16:00:40.634Z,100668.22
2023-01-02T16:05:49.803Z,100672.50
2023-01-02T16:11:01.334Z,100662.22
2023-01-02T16:16:15.808Z,100670.19
2023-01-02T16:21:19.986Z,100685.28
2023-01-02T16:26:32.923Z,100691.22
2023-01-02T16:31:52.361Z,100699.81
2023-01-02T16:37:29.731Z,100707.66
2023-01-02T16:42:37.627Z,100708.25
2023-01-02T16:47:43.986Z,100724.03
2023-01-02T16:52:47.421Z,100723.28
2023-01-02T16:57:52.465Z,100739.44
2023-01-02T17:02:55.365Z,100748.09
2023-01-02T17:07:58.231Z,100762.44
2023-01-02T17:13:02.521Z,100774.66
2023-01-02T17:18:05.547Z,100780.09
2023-01-02T17:23:09.049Z,100788.91
2023-01-02T17:28:13.550Z,100794.06
2023-01-02T17:33:16.834Z,100795.09
2023-01-02T17:38:19.671Z,100805.94
2023-01-02T17:43:24.111Z,100795.28
2023-01-02T17:48:26.943Z,100807.06
2023-01-02T17:53:29.777Z,100803.13
2023-01-02T17:58:33.927Z,100809.88
2023-01-02T18:03:38.082Z,100820.22
2023-01-02T18:08:40.878Z,100821.09
2023-01-02T18:13:47.810Z,100814.88
2023-01-02T18:18:53.204Z,100821.09
2023-01-02T18:23:59.529Z,100824.03
2023-01-02T18:29:09.792Z,100838.13
2023-01-02T18:34:46.343Z,100859.13
2023-01-02T18:39:43.720Z,100865.91
2023-01-02T18:44:48.355Z,100882.34
2023-01-02T18:49:51.239Z,100894.56
2023-01-02T18:54:59.804Z,100891.25
2023-01-02T19:00:20.630Z,100878.31
2023-01-02T19:05:27.067Z,100880.41
2023-01-02T19:10:37.016Z,100895.91
2023-01-02T19:15:44.235Z,100914.78
2023-01-02T19:20:50.247Z,100916.25
2023-01-02T19:25:53.827Z,100919.94
2023-01-02T19:30:58.392Z,100926.41
2023-01-02T19:36:03.636Z,100946.88
2023-01-02T19:41:06.561Z,100945.47
2023-01-02T19:46:10.739Z,100953.63
2023-01-02T19:51:13.628Z,100975.78
2023-01-02T19:56:16.484Z,100981.94
2023-01-02T20:01:22.237Z,100992.00
2023-01-02T20:06:25.494Z,100995.41
2023-01-02T20:11:46.112Z,100997.44
2023-01-02T20:16:50.333Z,101015.25
2023-01-02T20:21:54.192Z,101024.16
2023-01-02T20:26:58.298Z,101035.72
2023-01-02T20:32:02.624Z,101028.28
2023-01-02T20:37:05.783Z,101038.69
2023-01-02T20:42:13.439Z,101055.22
2023-01-02T20:47:18.718Z,101053.22
2023-01-02T20:52:21.906Z,101075.78
2023-01-02T20:57:24.731Z,101073.00
2023-01-02T21:02:29.002Z,101083.25
2023-01-02T21:07:31.909Z,101096.59
2023-01-02T21:12:52.087Z,101107.81
2023-01-02T21:17:56.502Z,101113.91
2023-01-02T21:22:59.322Z,101117.31
2023-01-02T21:28:02.472Z,101126.91
2023-01-02T21:33:06.800Z,101133.38
2023-01-02T21:38:10.713Z,101138.41
2023-01-02T21:43:13.986Z,101130.75
2023-01-02T21:48:18.105Z,101131.31
2023-01-02T21:53:20.914Z,101141.50
2023-01-02T21:58:23.719Z,101151.41
2023-01-02T22:03:27.941Z,101148.97
2023-01-02T22:08:30.976Z,101164.44
2023-01-02T22:13:33.783Z,101168.78
2023-01-02T22:18:38.400Z,101187.84
2023-01-02T22:23:41.443Z,101188.47
2023-01-02T22:28:44.643Z,101193.97
2023-01-02T22:33:48.782Z,101207.88
2023-01-02T22:39:25.849Z,101207.72
2023-01-02T22:44:17.281Z,101213.69
2023-01-02T22:49:25.393Z,101216.66
2023-01-02T22:54:28.239Z,101234.47
2023-01-02T22:59:31.021Z,101233.47
2023-01-02T23:04:35.173Z,101243.13
2023-01-02T23:09:37.908Z,101254.69
2023-01-02T23:14:40.713Z,101255.22
2023-01-02T23:19:44.878Z,101265.28
2023-01-02T23:24:47.736Z,101272.84
2023-01-02T23:29:50.546Z,101275.63
2023-01-02T23:34:55.769Z,101273.34
2023-01-02T23:39:58.621Z,101283.16
2023-01-02T23:45:01.502Z,101295.75
2023-01-02T23:50:06.606Z,101305.69
2023-01-02T23:55:10.292Z,101318.66
